createdAt,value
2017-11-26T00:00:58.689Z,5.60
2017-11-26T00:03:30.448Z,5.60
2017-11-26T00:06:02.084Z,5.60
2017-11-26T00:08:33.645Z,5.60
2017-11-26T00:11:04.749Z,5.60
2017-11-26T00:13:36.537Z,5.70
2017-11-26T00:16:08.011Z,5.50
2017-11-26T00:18:40.344Z,5.30
2017-11-26T00:21:11.501Z,5.30
2017-11-26T00:23:42.171Z,5.10
2017-11-26T00:26:12.873Z,5.00
2017-11-26T00:28:43.617Z,5.00
2017-11-26T00:31:14.493Z,5.10
2017-11-26T00:33:45.589Z,5.10
2017-11-26T00:36:17.423Z,5.20
2017-11-26T00:38:49.024Z,5.20
2017-11-26T00:41:19.815Z,5.20
2017-11-26T00:43:50.853Z,5.10
2017-11-26T00:46:22.319Z,5.30
2017-11-26T00:48:53.368Z,5.10
2017-11-26T00:51:25.060Z,4.60
2017-11-26T00:53:56.131Z,4.60
2017-11-26T00:56:27.796Z,4.80
2017-11-26T00:58:59.404Z,4.80
2017-11-26T01:01:30.582Z,4.80
2017-11-26T01:04:02.088Z,5.00
2017-11-26T01:06:33.307Z,5.10
2017-11-26T01:09:05.092Z,4.80
2017-11-26T01:12:48.314Z,5.00
2017-11-26T01:15:20.804Z,5.10
2017-11-26T01:17:51.459Z,5.10
2017-11-26T01:20:22.518Z,5.10
2017-11-26T01:22:54.103Z,4.60
2017-11-26T01:25:26.344Z,4.50
2017-11-26T01:27:58.015Z,4.50
2017-11-26T01:30:29.786Z,4.30
2017-11-26T01:33:01.980Z,4.10
2017-11-26T01:35:32.971Z,4.00
2017-11-26T01:38:03.924Z,3.80
2017-11-26T01:40:34.965Z,3.90
2017-11-26T01:43:05.735Z,3.90
2017-11-26T01:45:36.507Z,3.70
2017-11-26T01:48:08.852Z,4.00
2017-11-26T01:50:39.951Z,3.90
2017-11-26T01:53:12.022Z,4.20
2017-11-26T01:55:43.308Z,4.10
2017-11-26T01:58:15.572Z,4.30
2017-11-26T02:00:52.525Z,4.50
2017-11-26T02:03:23.700Z,4.60
2017-11-26T02:05:56.012Z,4.80
2017-11-26T02:08:27.019Z,4.80
2017-11-26T02:10:59.008Z,4.80
2017-11-26T02:13:29.988Z,4.80
2017-11-26T02:16:00.774Z,4.80
2017-11-26T02:18:31.647Z,4.70
2017-11-26T02:21:02.563Z,4.50
2017-11-26T02:23:33.458Z,4.50
2017-11-26T02:26:04.369Z,4.60
2017-11-26T02:28:35.291Z,4.40
2017-11-26T02:31:15.499Z,4.20
2017-11-26T02:33:58.784Z,4.10
2017-11-26T02:36:29.999Z,4.10
2017-11-26T02:39:01.300Z,4.20
2017-11-26T02:41:32.699Z,4.10
2017-11-26T02:44:05.291Z,4.00
2017-11-26T02:46:36.800Z,4.00
2017-11-26T02:49:09.120Z,4.10
2017-11-26T02:51:40.868Z,4.10
2017-11-26T02:54:12.510Z,4.10
2017-11-26T02:56:44.189Z,4.00
2017-11-26T02:59:15.897Z,3.90
2017-11-26T03:01:47.188Z,3.80
2017-11-26T03:04:18.685Z,3.90
2017-11-26T03:06:50.133Z,3.90
2017-11-26T03:09:21.226Z,4.00
2017-11-26T03:11:52.593Z,4.00
2017-11-26T03:14:23.886Z,3.70
2017-11-26T03:16:55.450Z,3.80
2017-11-26T03:19:27.334Z,3.80
2017-11-26T03:21:58.305Z,3.80
2017-11-26T03:24:29.345Z,3.90
2017-11-26T03:27:00.880Z,3.90
2017-11-26T03:29:32.275Z,3.90
2017-11-26T03:32:03.107Z,3.90
2017-11-26T03:34:34.086Z,3.90
2017-11-26T03:37:05.183Z,3.80
2017-11-26T03:39:36.475Z,3.70
2017-11-26T03:42:07.531Z,3.70
2017-11-26T03:44:39.400Z,3.70
2017-11-26T03:47:10.560Z,3.70
2017-11-26T03:51:54.072Z,3.30
2017-11-26T03:54:25.602Z,3.20
2017-11-26T03:56:57.363Z,3.00
2017-11-26T03:59:30.071Z,3.20
2017-11-26T04:02:01.926Z,3.10
2017-11-26T04:04:34.042Z,3.00
2017-11-26T04:07:05.687Z,2.90
2017-11-26T04:09:37.257Z,2.90
2017-11-26T04:12:09.765Z,2.70
2017-11-26T04:14:41.308Z,2.70
2017-11-26T04:17:12.219Z,2.70
2017-11-26T04:19:44.052Z,2.80
2017-11-26T04:22:15.722Z,2.70
2017-11-26T04:24:47.142Z,2.80
2017-11-26T04:27:18.691Z,2.80
2017-11-26T04:29:50.683Z,2.80
2017-11-26T04:32:22.374Z,2.70
2017-11-26T04:34:54.631Z,2.80
2017-11-26T04:37:27.260Z,2.80
2017-11-26T04:39:58.594Z,2.80
2017-11-26T04:42:29.915Z,2.30
2017-11-26T04:45:02.033Z,2.20
2017-11-26T04:47:33.754Z,2.10
2017-11-26T04:50:04.998Z,2.00
2017-11-26T04:52:37.087Z,2.00
2017-11-26T04:55:08.714Z,2.20
2017-11-26T04:57:40.339Z,2.30
2017-11-26T05:00:12.219Z,2.40
2017-11-26T05:02:46.518Z,2.20
2017-11-26T05:05:18.491Z,2.20
2017-11-26T05:07:49.990Z,2.20
2017-11-26T05:10:21.000Z,2.30
2017-11-26T05:12:53.095Z,2.40
2017-11-26T05:15:24.363Z,2.40
2017-11-26T05:17:55.360Z,2.40
2017-11-26T05:20:26.748Z,2.50
2017-11-26T05:22:57.574Z,2.40
2017-11-26T05:25:28.838Z,2.50
2017-11-26T05:27:59.759Z,2.70
2017-11-26T05:30:30.802Z,2.70
2017-11-26T05:33:01.684Z,2.70
2017-11-26T05:35:33.546Z,2.60
2017-11-26T05:38:04.680Z,2.50
2017-11-26T05:40:35.639Z,2.60
2017-11-26T05:43:08.171Z,2.60
2017-11-26T05:45:40.291Z,2.60
2017-11-26T05:48:12.541Z,2.70
2017-11-26T05:50:44.194Z,2.70
2017-11-26T05:53:15.889Z,2.70
2017-11-26T05:55:46.875Z,2.80
2017-11-26T05:58:18.512Z,2.90
2017-11-26T06:00:49.726Z,2.90
2017-11-26T06:03:22.141Z,3.00
2017-11-26T06:05:53.504Z,3.00
2017-11-26T06:08:24.877Z,3.10
2017-11-26T06:10:56.356Z,3.20
2017-11-26T06:13:27.919Z,3.20
2017-11-26T06:15:59.839Z,3.20
2017-11-26T06:18:30.596Z,3.20
2017-11-26T06:21:01.278Z,3.30
2017-11-26T06:23:32.254Z,3.10
2017-11-26T06:26:03.309Z,3.20
2017-11-26T06:28:34.195Z,3.40
2017-11-26T06:31:05.972Z,3.60
2017-11-26T06:33:36.984Z,3.50
2017-11-26T06:36:08.593Z,3.40
2017-11-26T06:38:39.323Z,3.40
2017-11-26T06:41:10.488Z,3.40
2017-11-26T06:43:41.692Z,3.30
2017-11-26T06:46:12.633Z,3.30
2017-11-26T06:48:43.727Z,3.30
2017-11-26T06:51:14.745Z,3.00
2017-11-26T06:53:45.518Z,2.80
2017-11-26T06:56:16.858Z,2.50
2017-11-26T06:58:47.494Z,2.70
2017-11-26T07:01:18.313Z,2.90
2017-11-26T07:03:49.154Z,2.90
2017-11-26T07:06:20.929Z,2.70
2017-11-26T07:08:51.785Z,2.70
2017-11-26T07:13:32.307Z,2.70
2017-11-26T07:16:04.432Z,2.30
2017-11-26T07:18:35.360Z,2.20
2017-11-26T07:21:06.387Z,2.50
2017-11-26T07:23:37.486Z,2.60
2017-11-26T07:26:08.235Z,2.70
2017-11-26T07:28:40.590Z,2.30
2017-11-26T07:31:12.364Z,2.50
2017-11-26T07:33:43.619Z,2.50
2017-11-26T07:36:14.686Z,2.70
2017-11-26T07:38:46.362Z,2.40
2017-11-26T07:41:17.003Z,2.50
2017-11-26T07:43:48.251Z,2.60
2017-11-26T07:46:19.579Z,2.60
2017-11-26T07:48:50.299Z,2.60
2017-11-26T07:51:21.319Z,2.50
2017-11-26T07:53:54.499Z,1.70
2017-11-26T07:56:27.919Z,1.80
2017-11-26T07:58:59.805Z,1.80
2017-11-26T08:01:31.008Z,1.90
2017-11-26T08:04:01.849Z,2.10
2017-11-26T08:06:32.956Z,2.20
2017-11-26T08:09:04.623Z,2.40
2017-11-26T08:11:35.897Z,2.40
2017-11-26T08:14:07.172Z,2.40
2017-11-26T08:16:40.099Z,2.50
2017-11-26T08:19:13.009Z,2.50
2017-11-26T08:21:45.884Z,2.50
2017-11-26T08:24:18.258Z,2.60
2017-11-26T08:26:49.440Z,2.60
2017-11-26T08:29:21.581Z,2.70
2017-11-26T08:31:52.568Z,2.70
2017-11-26T08:34:25.460Z,2.60
2017-11-26T08:36:58.037Z,2.60
2017-11-26T08:39:29.320Z,2.50
2017-11-26T08:43:03.332Z,2.50
2017-11-26T08:45:34.761Z,2.60
2017-11-26T08:48:06.370Z,2.50
2017-11-26T08:50:37.907Z,2.60
2017-11-26T08:53:09.006Z,2.70
2017-11-26T08:55:40.881Z,2.60
2017-11-26T08:58:11.669Z,2.60
2017-11-26T09:00:43.106Z,2.70
2017-11-26T09:03:15.264Z,2.30
2017-11-26T09:05:46.604Z,2.20
2017-11-26T09:08:17.883Z,2.10
2017-11-26T09:10:48.951Z,2.40
2017-11-26T09:13:20.832Z,2.70
2017-11-26T09:15:52.176Z,2.70
2017-11-26T09:18:23.127Z,2.70
2017-11-26T09:20:54.419Z,2.80
2017-11-26T09:23:25.138Z,2.90
2017-11-26T09:25:56.456Z,2.70
2017-11-26T09:28:27.162Z,2.70
2017-11-26T09:30:58.202Z,2.80
2017-11-26T09:33:29.180Z,2.90
2017-11-26T09:35:59.958Z,2.90
2017-11-26T09:38:31.750Z,3.10
2017-11-26T09:41:03.612Z,3.20
2017-11-26T09:43:34.431Z,3.20
2017-11-26T09:46:05.936Z,3.60
2017-11-26T09:48:36.933Z,3.60
2017-11-26T09:51:07.903Z,3.70
2017-11-26T09:53:39.621Z,3.70
2017-11-26T09:56:10.640Z,3.80
2017-11-26T09:58:41.411Z,3.70
2017-11-26T10:01:13.828Z,3.70
2017-11-26T10:03:45.223Z,3.70
2017-11-26T10:06:16.318Z,3.80
2017-11-26T10:08:47.231Z,3.50
2017-11-26T10:11:18.406Z,3.50
2017-11-26T10:13:49.350Z,3.60
2017-11-26T10:16:20.512Z,3.40
2017-11-26T10:18:51.797Z,3.50
2017-11-26T10:21:23.427Z,3.60
2017-11-26T10:23:54.298Z,3.60
2017-11-26T10:26:24.992Z,3.50
2017-11-26T10:28:55.841Z,3.60
2017-11-26T10:31:26.647Z,3.60
2017-11-26T10:33:57.475Z,3.50
2017-11-26T10:36:29.352Z,3.20
2017-11-26T10:39:00.238Z,3.00
2017-11-26T10:41:31.365Z,3.10
2017-11-26T10:44:02.931Z,3.20
2017-11-26T10:46:34.670Z,3.40
2017-11-26T10:49:06.212Z,3.30
2017-11-26T10:51:37.103Z,3.20
2017-11-26T10:54:07.904Z,3.10
2017-11-26T10:56:39.716Z,3.20
2017-11-26T10:59:11.477Z,3.20
2017-11-26T11:01:43.359Z,2.80
2017-11-26T11:04:15.219Z,2.80
2017-11-26T11:06:46.223Z,2.40
2017-11-26T11:09:17.199Z,2.60
2017-11-26T11:11:48.141Z,2.80
2017-11-26T11:14:18.953Z,3.00
2017-11-26T11:16:50.188Z,3.10
2017-11-26T11:19:20.844Z,3.10
2017-11-26T11:21:52.272Z,3.00
2017-11-26T11:24:24.132Z,3.40
2017-11-26T11:26:54.855Z,3.40
2017-11-26T11:29:25.591Z,3.70
2017-11-26T11:31:56.429Z,4.00
2017-11-26T11:34:27.558Z,3.90
2017-11-26T11:36:58.392Z,4.10
2017-11-26T11:39:29.162Z,4.10
2017-11-26T11:42:03.078Z,4.30
2017-11-26T11:44:34.284Z,4.40
2017-11-26T11:47:05.092Z,4.40
2017-11-26T11:49:36.655Z,4.50
2017-11-26T11:52:07.719Z,4.50
2017-11-26T11:54:38.610Z,4.50
2017-11-26T11:57:09.525Z,4.40
2017-11-26T11:59:40.382Z,4.30
2017-11-26T12:02:12.248Z,4.30
2017-11-26T12:04:44.751Z,4.10
2017-11-26T12:07:16.201Z,4.10
2017-11-26T12:09:46.866Z,4.00
2017-11-26T12:12:17.532Z,4.00
2017-11-26T12:14:48.648Z,4.10
2017-11-26T12:17:19.275Z,4.20
2017-11-26T12:19:50.032Z,4.30
2017-11-26T12:22:22.054Z,3.80
2017-11-26T12:24:53.121Z,3.80
2017-11-26T12:27:24.339Z,3.70
2017-11-26T12:29:56.845Z,3.90
2017-11-26T12:32:28.635Z,4.00
2017-11-26T12:35:00.766Z,3.80
2017-11-26T12:37:31.708Z,3.70
2017-11-26T12:40:02.703Z,3.60
2017-11-26T12:42:34.035Z,3.40
2017-11-26T12:45:04.925Z,3.40
2017-11-26T12:47:36.718Z,3.90
2017-11-26T12:50:07.694Z,3.80
2017-11-26T12:52:40.165Z,3.90
2017-11-26T12:55:12.239Z,4.00
2017-11-26T12:57:43.148Z,4.00
2017-11-26T13:00:14.130Z,4.00
2017-11-26T13:02:45.050Z,3.70
2017-11-26T13:05:16.457Z,3.80
2017-11-26T13:07:48.326Z,4.00
2017-11-26T13:10:19.182Z,4.00
2017-11-26T13:12:50.348Z,4.00
2017-11-26T13:15:21.450Z,3.70
2017-11-26T13:17:52.825Z,3.60
2017-11-26T13:20:24.327Z,3.50
2017-11-26T13:22:56.120Z,3.80
2017-11-26T13:25:27.250Z,3.80
2017-11-26T13:27:59.266Z,3.70
2017-11-26T13:30:30.207Z,3.70
2017-11-26T13:33:01.164Z,3.70
2017-11-26T13:35:33.264Z,3.70
2017-11-26T13:38:04.117Z,3.70
2017-11-26T13:42:51.784Z,3.70
2017-11-26T13:45:22.510Z,3.80
2017-11-26T13:47:53.327Z,3.80
2017-11-26T13:50:48.284Z,3.90
2017-11-26T13:53:19.978Z,3.80
2017-11-26T13:55:52.537Z,3.40
2017-11-26T13:58:23.928Z,3.50
2017-11-26T14:00:55.026Z,3.30
2017-11-26T14:03:28.223Z,3.50
2017-11-26T14:05:59.255Z,3.50
2017-11-26T14:08:30.280Z,3.60
2017-11-26T14:11:02.138Z,3.50
2017-11-26T14:13:33.462Z,3.50
2017-11-26T14:16:05.483Z,3.70
2017-11-26T14:18:37.478Z,3.70
2017-11-26T14:21:08.333Z,3.70
2017-11-26T14:23:39.070Z,3.70
2017-11-26T14:26:10.727Z,3.80
2017-11-26T14:28:42.363Z,3.70
2017-11-26T14:31:13.465Z,3.70
2017-11-26T14:33:44.562Z,3.70
2017-11-26T14:36:15.596Z,3.70
2017-11-26T14:38:46.460Z,3.50
2017-11-26T14:41:17.872Z,3.50
2017-11-26T14:43:49.045Z,3.50
2017-11-26T14:46:20.042Z,3.50
2017-11-26T14:48:53.305Z,3.40
2017-11-26T14:51:24.246Z,3.40
2017-11-26T14:53:55.574Z,3.10
2017-11-26T14:56:26.941Z,3.10
2017-11-26T14:58:58.065Z,3.20
2017-11-26T15:01:29.609Z,3.20
2017-11-26T15:04:01.280Z,3.20
2017-11-26T15:06:33.623Z,3.20
2017-11-26T15:09:05.525Z,2.90
2017-11-26T15:11:36.564Z,2.90
2017-11-26T15:14:07.788Z,2.90
2017-11-26T15:16:39.506Z,2.90
2017-11-26T15:19:10.353Z,2.80
2017-11-26T15:21:42.362Z,2.60
2017-11-26T15:24:13.355Z,2.70
2017-11-26T15:26:44.541Z,2.40
2017-11-26T15:29:15.488Z,2.30
2017-11-26T15:31:46.657Z,2.40
2017-11-26T15:34:17.990Z,2.50
2017-11-26T15:36:49.591Z,2.60
2017-11-26T15:39:21.121Z,2.30
2017-11-26T15:41:51.988Z,2.30
2017-11-26T15:44:23.050Z,2.30
2017-11-26T15:46:56.071Z,2.20
2017-11-26T15:49:28.387Z,2.20
2017-11-26T15:52:07.402Z,2.20
2017-11-26T15:54:47.403Z,2.10
2017-11-26T15:57:18.862Z,2.10
2017-11-26T15:59:49.864Z,2.10
2017-11-26T16:02:21.875Z,2.00
2017-11-26T16:04:53.467Z,2.00
2017-11-26T16:07:25.344Z,2.10
2017-11-26T16:09:56.855Z,2.20
2017-11-26T16:12:28.872Z,2.20
2017-11-26T16:14:59.919Z,2.20
2017-11-26T16:17:30.959Z,2.20
2017-11-26T16:20:02.674Z,2.10
2017-11-26T16:22:33.740Z,2.10
2017-11-26T16:25:06.265Z,2.30
2017-11-26T16:27:37.336Z,2.20
2017-11-26T16:30:09.657Z,2.40
2017-11-26T16:32:41.752Z,2.30
2017-11-26T16:35:42.384Z,2.30
2017-11-26T16:38:14.111Z,2.40
2017-11-26T16:40:45.713Z,2.00
2017-11-26T16:43:23.139Z,1.90
2017-11-26T16:45:54.706Z,1.90
2017-11-26T16:48:26.964Z,2.00
2017-11-26T16:50:58.171Z,1.90
2017-11-26T16:53:30.220Z,1.70
2017-11-26T16:56:03.765Z,1.70
2017-11-26T16:58:49.793Z,1.60
2017-11-26T17:01:21.680Z,1.70
2017-11-26T17:03:53.525Z,1.70
2017-11-26T17:06:24.627Z,1.80
2017-11-26T17:16:42.749Z,1.90
2017-11-26T17:19:13.500Z,1.90
2017-11-26T17:21:45.316Z,2.00
2017-11-26T17:24:16.573Z,1.90
2017-11-26T17:26:47.787Z,2.00
2017-11-26T17:29:19.019Z,2.00
2017-11-26T17:31:51.520Z,2.00
2017-11-26T17:34:22.851Z,2.00
2017-11-26T17:36:56.408Z,2.00
2017-11-26T17:39:27.306Z,1.70
2017-11-26T17:41:58.025Z,1.70
2017-11-26T17:44:28.845Z,1.60
2017-11-26T17:47:46.307Z,1.60
2017-11-26T17:50:18.065Z,1.60
2017-11-26T17:52:49.163Z,1.60
2017-11-26T17:55:20.447Z,1.70
2017-11-26T17:57:51.403Z,1.70
2017-11-26T18:00:22.248Z,1.70
2017-11-26T18:02:54.141Z,1.80
2017-11-26T18:05:25.719Z,1.90
2017-11-26T18:07:57.050Z,1.90
2017-11-26T18:10:28.080Z,1.90
2017-11-26T18:13:01.892Z,2.00
2017-11-26T18:15:34.256Z,2.00
2017-11-26T18:18:05.883Z,2.00
2017-11-26T18:20:36.973Z,2.00
2017-11-26T18:23:07.910Z,2.10
2017-11-26T18:25:39.047Z,2.10
2017-11-26T18:28:10.443Z,2.20
2017-11-26T18:30:41.690Z,2.10
2017-11-26T18:33:12.490Z,2.10
2017-11-26T18:35:43.629Z,2.20
2017-11-26T18:38:16.965Z,2.20
2017-11-26T18:40:48.029Z,2.10
2017-11-26T18:43:19.570Z,2.20
2017-11-26T18:45:50.704Z,2.30
2017-11-26T18:48:21.786Z,2.40
2017-11-26T18:50:56.118Z,2.40
2017-11-26T18:53:30.666Z,2.50
2017-11-26T18:56:02.367Z,2.40
2017-11-26T18:58:33.545Z,2.50
2017-11-26T19:01:04.819Z,2.50
2017-11-26T19:03:36.882Z,2.60
2017-11-26T19:06:08.205Z,2.60
2017-11-26T19:08:39.427Z,2.60
2017-11-26T19:11:11.079Z,2.60
2017-11-26T19:13:42.987Z,2.50
2017-11-26T19:16:14.198Z,2.50
2017-11-26T19:18:45.264Z,2.50
2017-11-26T19:21:18.341Z,2.60
2017-11-26T19:23:52.803Z,2.60
2017-11-26T19:26:24.024Z,2.60
2017-11-26T19:28:55.905Z,2.40
2017-11-26T19:31:30.588Z,2.40
2017-11-26T19:34:02.104Z,2.30
2017-11-26T19:36:33.518Z,2.30
2017-11-26T19:39:07.440Z,2.00
2017-11-26T19:41:41.022Z,2.00
2017-11-26T19:44:12.835Z,1.90
2017-11-26T19:46:47.658Z,2.10
2017-11-26T19:49:19.032Z,2.10
2017-11-26T19:51:51.457Z,2.10
2017-11-26T19:54:24.517Z,2.00
2017-11-26T19:56:55.846Z,2.10
2017-11-26T19:59:28.251Z,2.20
2017-11-26T20:01:59.594Z,2.20
2017-11-26T20:04:32.251Z,2.30
2017-11-26T20:07:05.009Z,2.30
2017-11-26T20:09:37.275Z,2.40
2017-11-26T20:12:10.832Z,2.40
2017-11-26T20:14:42.640Z,2.40
2017-11-26T20:17:17.134Z,2.50
2017-11-26T20:19:51.356Z,2.40
2017-11-26T20:22:22.878Z,2.20
2017-11-26T20:24:56.777Z,2.30
2017-11-26T20:27:30.074Z,2.30
2017-11-26T20:30:02.718Z,2.30
2017-11-26T20:32:35.310Z,2.40
2017-11-26T20:35:10.360Z,2.10
2017-11-26T20:37:41.500Z,2.10
2017-11-26T20:40:15.351Z,1.90
2017-11-26T20:42:48.156Z,1.90
2017-11-26T20:45:19.671Z,1.90
2017-11-26T20:47:52.693Z,1.90
2017-11-26T20:50:24.876Z,1.80
2017-11-26T20:53:07.457Z,1.90
2017-11-26T20:55:39.044Z,2.00
2017-11-26T20:58:10.954Z,2.00
2017-11-26T21:00:44.304Z,2.20
2017-11-26T21:03:21.377Z,2.20
2017-11-26T21:05:53.892Z,2.10
2017-11-26T21:08:26.204Z,2.20
2017-11-26T21:10:58.185Z,2.20
2017-11-26T21:14:28.865Z,2.10
2017-11-26T21:17:02.924Z,2.10
2017-11-26T21:19:33.754Z,2.20
2017-11-26T21:22:05.184Z,2.10
2017-11-26T21:24:36.789Z,2.30
2017-11-26T21:27:08.778Z,2.30
2017-11-26T21:29:42.704Z,2.10
2017-11-26T21:32:14.253Z,2.10
2017-11-26T21:34:46.852Z,2.20
2017-11-26T21:37:20.000Z,2.10
2017-11-26T21:39:52.915Z,2.20
2017-11-26T21:42:25.016Z,2.10
2017-11-26T21:44:57.424Z,2.10
2017-11-26T21:47:29.236Z,2.00
2017-11-26T21:50:00.044Z,2.00
2017-11-26T21:52:32.098Z,1.90
2017-11-26T21:55:03.124Z,1.80
2017-11-26T21:57:33.848Z,1.70
2017-11-26T22:00:05.112Z,1.60
2017-11-26T22:02:35.713Z,1.60
2017-11-26T22:05:06.417Z,1.60
2017-11-26T22:07:37.738Z,1.50
2017-11-26T22:10:08.916Z,1.60
2017-11-26T22:12:40.824Z,1.80
2017-11-26T22:15:13.135Z,1.80
2017-11-26T22:17:44.956Z,1.80
2017-11-26T22:20:16.826Z,1.80
2017-11-26T22:22:48.451Z,1.80
2017-11-26T22:25:19.479Z,1.80
2017-11-26T22:27:51.106Z,1.70
2017-11-26T22:30:22.103Z,1.80
2017-11-26T22:32:53.175Z,1.80
2017-11-26T22:35:24.715Z,1.80
2017-11-26T22:37:56.731Z,1.60
2017-11-26T22:40:27.956Z,1.70
2017-11-26T22:42:58.751Z,1.70
2017-11-26T22:45:29.848Z,1.80
2017-11-26T22:48:00.791Z,1.90
2017-11-26T22:50:31.576Z,2.00
2017-11-26T22:53:02.447Z,2.00
2017-11-26T22:55:33.558Z,1.90
2017-11-26T22:58:04.731Z,2.00
2017-11-26T23:00:35.558Z,2.10
2017-11-26T23:03:07.111Z,1.80
2017-11-26T23:05:38.580Z,1.80
2017-11-26T23:08:10.613Z,2.00
2017-11-26T23:10:42.364Z,2.00
2017-11-26T23:13:13.630Z,2.00
2017-11-26T23:15:44.521Z,2.10
2017-11-26T23:18:16.956Z,2.20
2017-11-26T23:20:48.552Z,2.20
2017-11-26T23:23:20.378Z,2.20
2017-11-26T23:25:51.286Z,2.20
2017-11-26T23:28:22.988Z,2.10
2017-11-26T23:30:54.893Z,1.70
2017-11-26T23:33:26.655Z,1.70
2017-11-26T23:35:59.507Z,1.80
2017-11-26T23:38:32.345Z,1.70
2017-11-26T23:41:03.953Z,1.90
2017-11-26T23:43:36.350Z,2.00
2017-11-26T23:46:07.970Z,1.90
2017-11-26T23:48:39.288Z,1.90
2017-11-26T23:51:14.894Z,1.90
2017-11-26T23:53:47.736Z,1.90
2017-11-26T23:56:19.842Z,1.90
2017-11-26T23:59:03.966Z,2.10
